Saturday, October 25, 2014, 1:26 PM EDT
Back to Local

KMPO, Mt Pocono Pocono Mountains

Location: Pocono Summit, PA, United States Lat: 41.133
Local Time: 1:26 PM EDT (17:26 GMT) Lon: -75.383
Time Zone: US/Eastern Elev: 1915 ft

Show me the last for .
Show Decoded

2014-10-25 12:53 METAR KMPO 251653Z AUTO 26010G17KT 10SM FEW034 13/04 A2978 RMK AO2 SLP087
                 T01330044 =
2014-10-25 11:53 METAR KMPO 251553Z AUTO 31014G18KT 10SM CLR 14/04 A2982 RMK AO2 SLP099 T01390039
                 =
2014-10-25 10:53 METAR KMPO 251453Z AUTO 28010G15KT 10SM OVC037 12/03 A2984 RMK AO2 SLP108
                 T01170033 58009 =
2014-10-25 09:53 METAR KMPO 251353Z AUTO 27007KT 10SM CLR 10/02 A2986 RMK AO2 SLP116 T01000017 =
2014-10-25 07:53 METAR KMPO 251153Z AUTO 30009KT 10SM CLR 07/00 A2987 RMK AO2 SLP119 7////
                 T00670000 10072 20056 56002 =
2014-10-25 06:53 METAR KMPO 251053Z AUTO 30006KT 10SM CLR 06/M01 A2987 RMK AO2 SLP122 T00561011 =
2014-10-25 05:53 METAR KMPO 250953Z AUTO 31009KT 10SM CLR 06/00 A2986 RMK AO2 SLP115 T00610000 =
2014-10-25 04:53 METAR KMPO 250853Z AUTO 32009KT 10SM CLR 06/00 A2987 RMK AO2 SLP119 T00610000
                 58001 =
2014-10-25 03:53 METAR KMPO 250753Z AUTO 32010KT 10SM CLR 06/M01 A2987 RMK AO2 SLP118 T00611011 =
2014-10-25 02:53 METAR KMPO 250653Z AUTO 31007KT 10SM CLR 07/M02 A2988 RMK AO2 SLP121 T00671017 =
2014-10-25 01:53 METAR KMPO 250553Z AUTO 32010KT 10SM CLR 07/M01 A2988 RMK AO2 SLP120 T00721011
                 10117 20072 53000 =
2014-10-25 00:53 METAR KMPO 250453Z AUTO 31011KT 10SM CLR 08/M02 A2988 RMK AO2 SLP119 T00831017
                 401560072 =
2014-10-24 23:53 METAR KMPO 250353Z AUTO 32012G18KT 10SM CLR 09/M01 A2987 RMK AO2 SLP119
                 T00891011 =
2014-10-24 21:53 METAR KMPO 250153Z AUTO 31012KT 10SM CLR 10/01 A2988 RMK AO2 SLP122 T01000011 =
2014-10-24 20:53 METAR KMPO 250053Z AUTO 31011KT 10SM CLR 11/02 A2987 RMK AO2 SLP120 T01060017 =
2014-10-24 19:53 METAR KMPO 242353Z AUTO 31010G18KT 10SM CLR 12/02 A2986 RMK AO2 SLP115 T01170017
                 10156 20117 53011 =
2014-10-24 18:53 METAR KMPO 242253Z AUTO 31012G21KT 10SM CLR 12/04 A2984 RMK AO2 SLP109 T01220044
                 =
2014-10-24 17:53 METAR KMPO 242153Z AUTO 31010KT 10SM CLR 13/04 A2983 RMK AO2 SLP105 T01330039 =
2014-10-24 16:53 METAR KMPO 242053Z AUTO 32016G24KT 10SM CLR 15/04 A2982 RMK AO2 PK WND
                 32027/2031 SLP101 T01500039 55000 =
2014-10-24 15:53 METAR KMPO 241953Z AUTO 31016G22KT 10SM CLR 16/04 A2981 RMK AO2 PK WND
                 34030/1928 SLP097 T01560044 =
2014-10-24 14:53 METAR KMPO 241853Z AUTO 33015G25KT 10SM CLR 16/04 A2982 RMK AO2 PK WND
                 33030/1756 SLP100 T01560044 =
2014-10-24 13:53 METAR KMPO 241753Z AUTO 31020G30KT 10SM CLR 14/04 A2982 RMK AO2 PK WND
                 31030/1740 SLP101 6//// T01440044 10150 20072 58010 =

Support USWX by starting your Amazon purchase here.